Time;durP1;ratioP1;P1;durP2;ratioP2;P2;SDS_P1;SDS_P2;PMS_P1;PMS_P2;Temp;Humidity;BMP_temperature;BMP_pressure;BME280_temperature;BME280_humidity;BME280_pressure;Samples;Min_cycle;Max_cycle;Signal;HPM_P1;HPM_P2
2023/09/14 00:00:45;;;;;;;;;25.67;23.67;;;;;20.50;70.24;101375.97;5065528;28;45263;-89
2023/09/14 00:03:11;;;;;;;;;16.67;16.00;;;;;20.41;70.40;101360.50;5067084;28;45338;-86
2023/09/14 00:05:40;;;;;;;;;20.00;18.00;;;;;20.60;70.32;101389.56;5065171;28;45697;-84
2023/09/14 00:08:06;;;;;;;;;22.67;21.33;;;;;20.52;70.36;101378.56;5065818;28;45315;-87
2023/09/14 00:10:32;;;;;;;;;22.00;20.67;;;;;20.51;70.67;101383.09;5064454;27;45392;-89
2023/09/14 00:12:58;;;;;;;;;25.33;24.33;;;;;20.54;70.92;101387.38;5066827;28;45316;-86
2023/09/14 00:15:24;;;;;;;;;21.67;21.67;;;;;20.50;71.46;101373.28;5065894;28;45284;-89
2023/09/14 00:17:49;;;;;;;;;21.33;20.00;;;;;20.26;71.51;101351.03;5064888;28;45304;-89
2023/09/14 00:20:20;;;;;;;;;16.67;16.67;;;;;20.40;71.63;101384.97;5063409;28;45259;-87
2023/09/14 00:22:46;;;;;;;;;22.67;20.33;;;;;20.26;72.06;101359.13;5061434;28;47145;-86
2023/09/14 00:25:11;;;;;;;;;24.33;23.00;;;;;20.12;72.19;101343.22;5057062;28;45389;-87
2023/09/14 00:27:36;;;;;;;;;24.33;19.33;;;;;20.36;72.33;101375.41;5053658;28;47612;-88
2023/09/14 00:30:02;;;;;;;;;21.67;21.33;;;;;20.36;72.24;101376.28;5062020;28;45469;-88
2023/09/14 00:32:28;;;;;;;;;21.33;20.33;;;;;20.35;72.18;101382.66;5060851;28;47441;-87
2023/09/14 00:34:53;;;;;;;;;19.33;19.33;;;;;20.34;73.00;101375.56;5075224;28;45622;-88
2023/09/14 00:37:19;;;;;;;;;21.67;21.67;;;;;20.30;72.99;101376.78;5076360;28;45362;-88
2023/09/14 00:39:44;;;;;;;;;27.67;24.33;;;;;20.32;73.30;101388.34;5056187;28;45221;-87
2023/09/14 00:42:12;;;;;;;;;25.00;24.00;;;;;20.16;73.21;101355.47;5062721;28;45529;-88
2023/09/14 00:44:38;;;;;;;;;23.67;22.00;;;;;20.31;73.07;101386.59;5061049;28;45358;-88
2023/09/14 00:47:03;;;;;;;;;18.00;18.00;;;;;20.33;73.05;101387.34;5060461;28;45669;-88
2023/09/14 00:49:29;;;;;;;;;23.33;22.67;;;;;19.98;73.30;101331.75;5062537;28;45978;-88
2023/09/14 00:51:55;;;;;;;;;24.00;20.67;;;;;20.33;72.98;101390.91;5062781;28;45436;-89
2023/09/14 00:54:20;;;;;;;;;23.00;19.67;;;;;19.72;73.56;101297.97;5061432;28;45770;-89
2023/09/14 00:56:46;;;;;;;;;20.33;20.33;;;;;20.06;73.37;101365.38;5062366;28;45328;-88
2023/09/14 00:59:11;;;;;;;;;25.00;22.00;;;;;19.68;73.52;101280.34;5061028;28;45664;-86
2023/09/14 01:01:37;;;;;;;;;21.00;21.00;;;;;20.19;73.37;101371.44;5063690;28;45487;-87
2023/09/14 01:04:05;;;;;;;;;18.33;18.33;;;;;20.10;73.14;101347.91;5062966;28;45227;-88
2023/09/14 01:06:32;;;;;;;;;23.33;20.00;;;;;20.30;73.54;101382.19;5060903;28;45311;-89
2023/09/14 01:08:57;;;;;;;;;19.00;18.33;;;;;20.08;73.61;101352.59;5061887;28;45180;-88
2023/09/14 01:11:23;;;;;;;;;19.67;17.00;;;;;20.22;73.49;101393.66;5061608;28;47910;-86
2023/09/14 01:14:04;;;;;;;;;21.00;21.00;;;;;19.90;73.97;101342.31;5062988;28;45180;-88
2023/09/14 01:16:50;;;;;;;;;20.00;17.00;;;;;19.94;74.40;101353.75;5063202;28;45417;-88
2023/09/14 01:19:44;;;;;;;;;21.67;19.33;;;;;20.07;74.46;101385.97;5046978;28;45243;-86
2023/09/14 01:22:42;;;;;;;;;20.00;20.00;;;;;19.78;74.82;101350.56;5060879;28;45400;-87
2023/09/14 01:25:07;;;;;;;;;24.67;23.33;;;;;19.97;75.03;101388.56;5063510;28;45544;-87
2023/09/14 01:27:32;;;;;;;;;21.67;21.67;;;;;19.92;75.56;101385.38;5060179;28;45227;-88
2023/09/14 01:29:59;;;;;;;;;23.67;20.00;;;;;19.87;76.11;101380.38;5060281;27;45280;-87
2023/09/14 01:32:26;;;;;;;;;24.33;23.00;;;;;19.64;75.76;101365.19;5060153;28;47717;-87
2023/09/14 01:34:52;;;;;;;;;21.67;21.33;;;;;19.79;75.69;101393.63;5061678;28;45485;-87
2023/09/14 01:37:18;;;;;;;;;19.67;18.00;;;;;19.55;76.12;101357.88;5061164;28;45428;-87
2023/09/14 01:39:44;;;;;;;;;18.67;18.67;;;;;19.62;76.09;101376.13;5067111;28;45699;-87
2023/09/14 01:42:10;;;;;;;;;22.67;21.33;;;;;19.52;76.76;101367.03;5071583;28;45158;-87
2023/09/14 01:44:37;;;;;;;;;25.67;23.00;;;;;19.58;76.71;101380.06;5069623;28;44914;-88
2023/09/14 01:47:04;;;;;;;;;23.67;22.67;;;;;19.53;76.88;101381.38;5061471;28;45169;-87
2023/09/14 01:49:29;;;;;;;;;20.00;20.00;;;;;19.55;77.31;101398.34;5077325;28;45539;-88
2023/09/14 01:51:55;;;;;;;;;21.33;21.33;;;;;19.26;77.53;101352.09;5060822;28;45316;-86
2023/09/14 01:54:20;;;;;;;;;19.67;19.67;;;;;19.50;77.55;101389.72;5074843;28;45382;-85
2023/09/14 01:56:45;;;;;;;;;20.00;19.67;;;;;19.12;77.98;101342.41;5078379;28;45268;-88
2023/09/14 01:59:11;;;;;;;;;15.33;14.33;;;;;19.29;77.63;101360.81;5081065;28;44838;-88
2023/09/14 02:01:36;;;;;;;;;36.00;27.67;;;;;19.38;77.61;101381.63;5081482;28;45898;-88
2023/09/14 02:04:02;;;;;;;;;54.00;44.75;;;;;19.50;77.68;101392.41;5078302;28;44774;-87
2023/09/14 02:06:27;;;;;;;;;70.00;53.75;;;;;19.49;77.78;101391.56;5076593;28;45600;-86
2023/09/14 02:08:52;;;;;;;;;75.50;61.00;;;;;19.30;77.81;101359.84;5066238;28;44818;-85
2023/09/14 02:11:18;;;;;;;;;71.75;61.75;;;;;19.32;78.19;101365.97;5063612;28;45346;-87
2023/09/14 02:13:43;;;;;;;;;68.75;56.50;;;;;19.21;78.55;101357.88;5059626;28;45250;-87
2023/09/14 02:16:09;;;;;;;;;69.75;53.75;;;;;18.90;78.08;101310.09;5058653;28;45548;-88
2023/09/14 02:18:35;;;;;;;;;61.75;48.75;;;;;19.16;78.39;101354.69;5058537;28;45581;-85
2023/09/14 02:21:00;;;;;;;;;46.00;38.33;;;;;19.29;78.87;101390.50;5056152;28;45890;-87
2023/09/14 02:23:25;;;;;;;;;50.75;43.50;;;;;19.06;79.53;101357.25;5057412;28;45338;-87
2023/09/14 02:25:51;;;;;;;;;40.67;33.00;;;;;19.21;79.58;101382.13;5056305;28;45662;-88
2023/09/14 02:28:20;;;;;;;;;31.67;30.33;;;;;19.20;79.61;101391.22;5056406;28;45500;-88
2023/09/14 02:30:46;;;;;;;;;33.67;30.00;;;;;19.18;79.26;101382.38;5056912;28;45452;-87
2023/09/14 02:33:11;;;;;;;;;31.33;30.00;;;;;18.93;79.07;101343.03;5057550;28;45325;-87
2023/09/14 02:35:39;;;;;;;;;36.00;30.33;;;;;19.22;78.94;101375.75;5056812;28;45554;-84
2023/09/14 02:38:05;;;;;;;;;29.00;27.33;;;;;18.86;78.86;101313.00;5057648;28;45614;-85
2023/09/14 02:40:31;;;;;;;;;29.67;29.67;;;;;19.17;78.79;101361.81;5058074;28;46219;-86
2023/09/14 02:42:57;;;;;;;;;30.67;27.00;;;;;18.87;78.51;101311.16;5060213;28;45246;-85
2023/09/14 02:45:23;;;;;;;;;23.33;21.67;;;;;19.24;79.30;101373.78;5059833;28;45279;-85
2023/09/14 02:47:48;;;;;;;;;27.00;26.00;;;;;19.18;79.35;101368.91;5060419;28;45394;-86
2023/09/14 02:50:14;;;;;;;;;26.67;24.00;;;;;18.83;79.25;101318.66;5058604;28;47149;-86
2023/09/14 02:52:39;;;;;;;;;24.33;21.33;;;;;19.04;79.64;101355.66;5058540;28;45903;-86
2023/09/14 02:55:05;;;;;;;;;25.33;22.67;;;;;18.87;80.12;101335.41;5082049;27;45538;-84
2023/09/14 02:57:30;;;;;;;;;23.33;22.00;;;;;18.74;79.66;101322.06;5040367;28;45319;-86
2023/09/14 02:59:56;;;;;;;;;22.00;19.67;;;;;18.87;79.81;101340.81;5053239;28;46085;-86
2023/09/14 03:02:22;;;;;;;;;22.67;21.33;;;;;18.83;79.83;101325.88;5058818;28;45853;-87
2023/09/14 03:04:47;;;;;;;;;23.00;23.00;;;;;18.84;79.78;101332.97;5060064;27;45385;-86
2023/09/14 03:07:12;;;;;;;;;20.67;20.00;;;;;18.57;79.93;101279.41;5061880;28;45635;-88
2023/09/14 03:09:38;;;;;;;;;22.67;22.67;;;;;19.09;80.09;101362.41;5068203;28;47927;-87
2023/09/14 03:12:04;;;;;;;;;23.33;19.00;;;;;19.00;79.60;101359.56;5062028;28;45300;-87
2023/09/14 03:14:29;;;;;;;;;22.33;21.67;;;;;18.88;79.76;101323.69;5071673;28;45490;-88
2023/09/14 03:16:55;;;;;;;;;24.00;20.00;;;;;19.13;79.63;101371.09;5071854;28;45189;-87
2023/09/14 03:19:20;;;;;;;;;19.67;19.00;;;;;18.68;79.86;101301.00;5084339;28;45980;-86
2023/09/14 03:21:46;;;;;;;;;18.33;17.33;;;;;18.74;80.55;101300.50;5100669;27;45205;-87
2023/09/14 03:24:12;;;;;;;;;22.00;22.00;;;;;18.77;80.67;101329.91;5076839;28;45961;-87
2023/09/14 03:26:37;;;;;;;;;21.67;19.33;;;;;18.93;80.87;101348.44;5064669;28;45247;-87
2023/09/14 03:29:02;;;;;;;;;18.00;16.33;;;;;18.90;80.65;101350.53;5057330;28;47251;-86
2023/09/14 03:31:29;;;;;;;;;17.67;17.67;;;;;19.04;80.44;101355.66;5058904;28;45616;-88
2023/09/14 03:33:54;;;;;;;;;19.33;19.33;;;;;18.92;80.11;101329.69;5059905;28;45450;-88
2023/09/14 03:36:20;;;;;;;;;33.00;25.00;;;;;18.98;80.43;101340.81;5059665;28;45417;-89
2023/09/14 03:38:45;;;;;;;;;18.33;18.33;;;;;19.05;80.54;101349.28;5059843;28;45549;-88
2023/09/14 03:41:12;;;;;;;;;19.67;19.67;;;;;18.92;80.73;101335.94;5058497;28;45325;-89
2023/09/14 03:43:38;;;;;;;;;19.33;18.33;;;;;19.04;80.79;101352.97;5060307;28;45436;-88
2023/09/14 03:46:04;;;;;;;;;21.33;21.33;;;;;18.76;80.49;101313.88;5059535;28;45282;-89
2023/09/14 03:48:29;;;;;;;;;23.67;21.00;;;;;18.70;80.38;101296.34;5059289;28;46269;-88
2023/09/14 03:50:58;;;;;;;;;23.00;22.33;;;;;19.01;80.59;101361.28;5059273;27;45306;-88
2023/09/14 03:53:24;;;;;;;;;19.67;19.33;;;;;18.99;80.67;101355.16;5058723;28;45358;-88
2023/09/14 03:55:49;;;;;;;;;26.33;25.00;;;;;18.82;80.69;101327.72;5059367;28;45555;-88
2023/09/14 03:58:15;;;;;;;;;25.33;21.33;;;;;18.51;80.50;101271.81;5059199;28;45341;-87
2023/09/14 04:00:40;;;;;;;;;22.33;19.33;;;;;18.91;80.43;101338.75;5054358;28;45742;-86
2023/09/14 04:03:06;;;;;;;;;27.33;26.67;;;;;18.99;80.26;101347.94;5054626;28;45823;-88
2023/09/14 04:05:31;;;;;;;;;26.67;24.33;;;;;18.79;79.58;101314.47;5050481;28;45353;-87
2023/09/14 04:07:56;;;;;;;;;21.00;21.00;;;;;18.79;79.89;101308.25;5059146;28;45675;-87
2023/09/14 04:10:22;;;;;;;;;25.00;24.67;;;;;18.84;79.22;101323.06;5058906;28;45318;-88
2023/09/14 04:12:48;;;;;;;;;23.00;19.00;;;;;18.72;79.17;101296.22;5075016;27;45375;-87
2023/09/14 04:15:14;;;;;;;;;21.33;21.00;;;;;18.82;79.04;101314.22;5058715;27;45616;-88
2023/09/14 04:17:39;;;;;;;;;21.67;21.67;;;;;18.89;78.95;101330.78;5058894;28;45307;-89
2023/09/14 04:20:11;;;;;;;;;26.33;23.33;;;;;18.81;78.98;101314.34;5058586;28;45519;-86
2023/09/14 04:22:38;;;;;;;;;26.33;20.67;;;;;18.90;78.95;101327.13;5058997;28;45415;-86
2023/09/14 04:25:03;;;;;;;;;23.33;22.67;;;;;18.98;79.01;101338.13;5073984;28;45366;-87
2023/09/14 04:27:29;;;;;;;;;29.00;25.67;;;;;18.92;79.36;101322.47;5058253;27;46535;-87
2023/09/14 04:29:54;;;;;;;;;27.33;25.00;;;;;18.77;79.91;101311.06;5070588;28;45359;-87
2023/09/14 04:32:20;;;;;;;;;27.00;27.00;;;;;18.91;80.00;101346.84;5071481;28;45393;-87
2023/09/14 04:34:45;;;;;;;;;25.00;25.00;;;;;18.60;79.97;101298.00;5046473;28;45220;-88
2023/09/14 04:37:10;;;;;;;;;24.67;23.67;;;;;18.36;79.96;101264.91;5059086;28;46269;-87
2023/09/14 04:39:36;;;;;;;;;24.00;22.33;;;;;18.61;80.23;101306.94;5056766;28;45243;-88
2023/09/14 04:42:01;;;;;;;;;29.33;25.00;;;;;18.86;79.74;101353.44;5058504;28;45353;-88
2023/09/14 04:44:27;;;;;;;;;23.33;21.67;;;;;18.70;79.22;101327.81;5058346;28;45342;-89
2023/09/14 04:46:52;;;;;;;;;25.00;23.67;;;;;18.79;79.06;101336.03;5058186;28;46411;-88
2023/09/14 04:49:17;;;;;;;;;24.00;24.00;;;;;18.89;80.07;101346.09;5056614;28;45271;-87
2023/09/14 04:51:43;;;;;;;;;23.67;19.67;;;;;18.49;80.00;101287.22;5057110;28;45226;-88
2023/09/14 04:54:08;;;;;;;;;24.00;22.67;;;;;18.77;80.84;101356.88;5059001;28;45523;-88
2023/09/14 04:56:33;;;;;;;;;20.00;20.00;;;;;18.70;81.75;101357.47;5053198;28;46132;-85
2023/09/14 04:59:00;;;;;;;;;25.33;22.67;;;;;18.49;81.69;101323.13;5038275;28;45343;-88
2023/09/14 05:01:25;;;;;;;;;25.67;22.67;;;;;18.30;82.44;101301.25;5054567;28;45325;-86
2023/09/14 05:03:51;;;;;;;;;21.00;19.67;;;;;18.32;82.28;101310.06;5057569;28;45512;-88
2023/09/14 05:06:16;;;;;;;;;28.00;25.00;;;;;18.17;82.47;101287.03;5070285;28;47007;-88
2023/09/14 05:08:41;;;;;;;;;23.00;20.00;;;;;18.43;83.06;101344.25;5041526;28;45916;-87
2023/09/14 05:11:06;;;;;;;;;22.67;22.67;;;;;18.52;82.53;101365.09;5057917;28;45398;-86
2023/09/14 05:13:32;;;;;;;;;31.33;27.00;;;;;18.49;83.49;101359.94;5057406;28;45271;-87
2023/09/14 05:15:57;;;;;;;;;20.33;19.67;;;;;18.07;83.68;101316.47;5055590;28;47128;-87
2023/09/14 05:18:23;;;;;;;;;24.33;21.00;;;;;18.10;84.62;101335.09;5056715;28;45331;-86
2023/09/14 05:20:48;;;;;;;;;25.00;24.00;;;;;17.95;84.44;101306.63;5057666;28;45347;-86
2023/09/14 05:23:14;;;;;;;;;27.00;26.00;;;;;18.14;84.14;101350.03;5057754;28;45933;-86
2023/09/14 05:25:40;;;;;;;;;23.00;22.33;;;;;18.31;84.59;101382.91;5058331;28;45865;-86
2023/09/14 05:28:06;;;;;;;;;24.00;23.00;;;;;18.32;84.34;101373.84;5056789;28;45737;-87
2023/09/14 05:30:32;;;;;;;;;25.33;24.67;;;;;18.13;84.32;101345.63;5059928;28;45376;-85
2023/09/14 05:32:58;;;;;;;;;24.67;21.33;;;;;18.22;84.50;101363.75;5060028;28;45253;-87
2023/09/14 05:35:23;;;;;;;;;23.67;22.67;;;;;18.30;84.12;101375.78;5059627;28;45419;-87
2023/09/14 05:37:49;;;;;;;;;27.33;25.00;;;;;18.01;84.37;101332.25;5059668;28;45591;-89
2023/09/14 05:40:15;;;;;;;;;21.67;19.67;;;;;18.27;84.22;101360.75;5060275;28;45534;-89
2023/09/14 05:42:41;;;;;;;;;25.67;24.00;;;;;18.25;84.51;101368.06;5077942;28;45531;-87
2023/09/14 05:45:08;;;;;;;;;26.67;23.33;;;;;18.18;84.33;101350.66;5061346;28;45934;-84
2023/09/14 05:47:34;;;;;;;;;28.67;24.00;;;;;18.30;84.01;101370.41;5059319;28;45425;-83
2023/09/14 05:50:00;;;;;;;;;23.67;22.00;;;;;18.34;84.23;101382.66;5062213;28;45259;-81
2023/09/14 05:52:26;;;;;;;;;21.33;20.67;;;;;18.36;84.26;101380.69;5057818;28;45776;-83
2023/09/14 05:54:51;;;;;;;;;22.67;22.67;;;;;18.38;84.35;101384.16;5059946;28;45991;-83
2023/09/14 05:57:17;;;;;;;;;22.33;22.33;;;;;18.26;84.23;101367.97;5057828;28;45361;-80
2023/09/14 05:59:42;;;;;;;;;29.67;25.00;;;;;18.46;84.09;101389.81;5061586;28;45500;-85
2023/09/14 06:02:08;;;;;;;;;21.33;21.00;;;;;18.47;83.57;101394.22;5059135;28;45497;-83
2023/09/14 06:04:34;;;;;;;;;26.33;22.00;;;;;18.31;83.55;101370.28;5060428;28;48588;-85
2023/09/14 06:07:00;;;;;;;;;26.33;24.00;;;;;18.47;83.50;101395.06;5061256;28;45738;-85
2023/09/14 06:09:26;;;;;;;;;23.33;22.33;;;;;18.36;83.19;101372.63;5063838;28;45428;-83
2023/09/14 06:11:52;;;;;;;;;23.00;22.67;;;;;18.54;83.35;101392.78;5065847;28;45554;-84
2023/09/14 06:14:18;;;;;;;;;32.00;30.00;;;;;18.61;82.51;101401.22;5062537;28;45367;-85
2023/09/14 06:16:43;;;;;;;;;29.00;24.33;;;;;18.61;82.29;101383.22;5060574;28;45333;-81
2023/09/14 06:19:08;;;;;;;;;22.33;21.33;;;;;18.74;81.78;101396.66;5058809;28;48493;-84
2023/09/14 06:21:34;;;;;;;;;27.33;25.00;;;;;18.81;81.55;101387.97;5057406;28;45318;-84
2023/09/14 06:23:59;;;;;;;;;25.00;25.00;;;;;19.07;80.15;101401.25;5059131;28;45473;-85
2023/09/14 06:26:28;;;;;;;;;22.33;22.33;;;;;19.13;80.14;101398.91;5062255;28;45281;-84
2023/09/14 06:28:53;;;;;;;;;31.00;28.33;;;;;19.13;80.40;101406.16;5063366;28;45307;-84
2023/09/14 06:31:19;;;;;;;;;22.67;20.67;;;;;19.12;80.17;101401.72;5060543;28;45364;-84
2023/09/14 06:33:44;;;;;;;;;31.33;27.67;;;;;19.13;80.16;101403.44;5058324;28;45311;-84
2023/09/14 06:36:10;;;;;;;;;25.00;25.00;;;;;19.04;80.35;101382.63;5057180;28;45392;-85
2023/09/14 06:38:35;;;;;;;;;28.67;23.33;;;;;19.23;79.95;101399.06;5056646;28;45527;-83
2023/09/14 06:41:00;;;;;;;;;29.00;25.33;;;;;19.31;80.06;101402.00;5057766;28;45364;-84
2023/09/14 06:43:26;;;;;;;;;29.00;25.33;;;;;19.30;79.45;101383.25;5059743;28;48130;-84
2023/09/14 06:45:51;;;;;;;;;29.00;25.33;;;;;19.39;78.90;101394.13;5061037;28;45235;-83
2023/09/14 06:48:16;;;;;;;;;25.00;25.00;;;;;19.37;78.76;101388.00;5062298;28;45350;-85
2023/09/14 06:50:42;;;;;;;;;29.00;27.00;;;;;19.39;78.38;101402.22;5064120;28;45632;-83
2023/09/14 06:53:08;;;;;;;;;26.67;26.00;;;;;19.30;78.41;101384.09;5066431;28;49370;-83
2023/09/14 06:55:37;;;;;;;;;31.67;29.00;;;;;19.35;78.27;101389.97;5068365;28;44771;-86
2023/09/14 06:58:03;;;;;;;;;29.67;25.00;;;;;19.51;77.78;101407.63;5068555;28;45364;-85
2023/09/14 07:00:28;;;;;;;;;28.33;27.33;;;;;19.50;77.68;101393.28;5064580;28;45544;-84
2023/09/14 07:02:53;;;;;;;;;28.67;26.00;;;;;19.29;77.16;101363.50;5060789;28;46064;-85
2023/09/14 07:05:19;;;;;;;;;30.67;26.67;;;;;19.50;77.49;101411.31;5057531;28;45321;-83
2023/09/14 07:07:44;;;;;;;;;30.33;27.67;;;;;19.39;77.73;101404.06;5055444;28;45378;-84
2023/09/14 07:10:10;;;;;;;;;28.00;26.00;;;;;19.42;77.87;101412.78;5056054;28;45554;-84
2023/09/14 07:12:36;;;;;;;;;26.67;26.67;;;;;19.37;77.61;101396.09;5056458;28;45771;-84
2023/09/14 07:15:02;;;;;;;;;36.33;29.33;;;;;19.74;76.77;101398.56;5055352;28;45409;-83
2023/09/14 07:17:28;;;;;;;;;29.67;28.00;;;;;19.98;75.37;101414.59;5057838;28;45368;-84
2023/09/14 07:19:53;;;;;;;;;29.33;25.00;;;;;19.91;75.23;101405.25;5055898;28;45527;-84
2023/09/14 07:22:19;;;;;;;;;28.33;28.00;;;;;19.82;75.95;101411.44;5048914;28;46063;-84
2023/09/14 07:24:46;;;;;;;;;26.67;24.67;;;;;19.76;76.09;101393.88;5054761;28;45402;-84
2023/09/14 07:27:12;;;;;;;;;33.00;29.33;;;;;19.76;75.86;101399.28;5054499;28;45796;-83
2023/09/14 07:29:38;;;;;;;;;37.00;31.67;;;;;19.96;76.14;101419.25;5058175;28;45580;-84
2023/09/14 07:32:03;;;;;;;;;32.00;28.33;;;;;19.84;75.65;101367.13;5075742;28;45378;-86
2023/09/14 07:34:29;;;;;;;;;31.67;30.00;;;;;20.19;74.86;101420.06;5057315;28;45411;-84
2023/09/14 07:36:55;;;;;;;;;35.67;32.33;;;;;20.20;74.73;101411.81;5060954;28;45784;-85
2023/09/14 07:39:20;;;;;;;;;36.00;30.00;;;;;20.27;74.50;101415.72;5065270;28;45430;-86
2023/09/14 07:41:45;;;;;;;;;27.00;25.67;;;;;20.23;74.25;101397.19;5058345;28;46059;-85
2023/09/14 07:44:12;;;;;;;;;31.67;29.67;;;;;20.31;74.05;101419.00;5060072;28;45807;-84
2023/09/14 07:46:39;;;;;;;;;32.67;29.00;;;;;20.14;74.58;101408.75;5059747;28;45496;-84
2023/09/14 07:49:05;;;;;;;;;37.00;31.67;;;;;20.09;74.86;101413.69;5060128;28;45557;-83
2023/09/14 07:51:30;;;;;;;;;33.00;32.33;;;;;20.04;74.79;101389.75;5058016;28;46245;-82
2023/09/14 07:53:55;;;;;;;;;33.67;31.67;;;;;20.19;74.89;101410.13;5059410;28;53343;-83
2023/09/14 07:56:22;;;;;;;;;29.00;28.33;;;;;20.22;74.45;101419.81;5061279;28;45836;-86
2023/09/14 07:58:48;;;;;;;;;32.67;30.33;;;;;20.06;74.62;101403.16;5057656;28;45432;-83
2023/09/14 08:01:13;;;;;;;;;40.00;33.00;;;;;20.04;74.42;101397.88;5074595;28;46868;-82
2023/09/14 08:03:38;;;;;;;;;39.00;32.33;;;;;20.33;74.12;101423.31;5059677;28;47929;-83
2023/09/14 08:06:04;;;;;;;;;31.00;30.33;;;;;20.42;73.51;101429.81;5059255;28;45369;-81
2023/09/14 08:08:29;;;;;;;;;39.67;31.67;;;;;20.27;73.93;101421.13;5057868;28;45799;-82
2023/09/14 08:10:55;;;;;;;;;35.67;32.67;;;;;20.13;74.41;101416.00;5060626;28;45485;-83
2023/09/14 08:13:22;;;;;;;;;44.33;36.67;;;;;20.07;74.35;101431.88;5059962;28;45920;-86
2023/09/14 08:15:47;;;;;;;;;48.00;36.33;;;;;20.07;74.81;101434.56;5066455;28;45440;-87
2023/09/14 08:18:13;;;;;;;;;37.00;33.00;;;;;19.86;74.80;101408.34;5068608;28;45418;-87
2023/09/14 08:20:43;;;;;;;;;37.33;33.33;;;;;19.96;74.81;101425.50;5072463;28;45220;-87
2023/09/14 08:23:15;;;;;;;;;39.67;32.00;;;;;19.94;74.88;101426.63;5067511;28;45305;-85
2023/09/14 08:25:44;;;;;;;;;34.67;30.00;;;;;20.01;74.81;101442.19;5045466;28;45397;-85
2023/09/14 08:28:15;;;;;;;;;33.67;30.67;;;;;19.97;75.22;101431.78;5065994;28;45347;-84
2023/09/14 08:30:41;;;;;;;;;40.00;31.67;;;;;19.90;74.97;101423.31;5063856;28;46883;-83
2023/09/14 08:33:07;;;;;;;;;29.33;29.33;;;;;20.17;74.51;101446.31;5063819;28;45426;-83
2023/09/14 08:35:34;;;;;;;;;32.00;30.00;;;;;20.35;74.06;101443.94;5063105;28;45334;-87
2023/09/14 08:38:00;;;;;;;;;41.33;34.00;;;;;20.42;73.74;101442.47;5060771;28;45378;-85
2023/09/14 08:40:26;;;;;;;;;39.67;32.67;;;;;20.61;73.07;101442.63;5059862;28;46696;-84
2023/09/14 08:42:54;;;;;;;;;42.33;32.00;;;;;20.63;72.63;101426.28;5062578;28;45488;-84
2023/09/14 08:45:23;;;;;;;;;41.67;33.33;;;;;20.92;72.10;101435.44;5058989;28;45456;-82
2023/09/14 08:47:50;;;;;;;;;40.33;33.00;;;;;21.16;70.91;101432.47;5056750;28;45426;-81
2023/09/14 08:50:17;;;;;;;;;36.33;32.67;;;;;21.33;70.32;101431.88;5055780;28;45429;-82
2023/09/14 08:52:44;;;;;;;;;31.67;29.67;;;;;21.39;70.13;101427.78;5055630;28;45507;-80
2023/09/14 08:55:11;;;;;;;;;40.33;34.33;;;;;21.35;69.83;101405.53;5055595;28;45500;-79
2023/09/14 08:57:39;;;;;;;;;35.67;33.00;;;;;21.73;68.66;101436.44;5055706;28;45436;-82
2023/09/14 09:00:14;;;;;;;;;25.33;23.67;;;;;21.89;68.12;101435.94;5053854;28;47196;-83
2023/09/14 09:02:41;;;;;;;;;37.67;32.33;;;;;21.95;67.80;101425.41;5055652;28;45378;-81
2023/09/14 09:05:07;;;;;;;;;40.67;33.33;;;;;22.00;67.17;101422.25;5054470;28;45385;-80
2023/09/14 09:07:33;;;;;;;;;41.67;33.00;;;;;22.29;66.93;101438.63;5055913;28;45558;-83
2023/09/14 09:10:00;;;;;;;;;42.33;35.33;;;;;22.38;65.24;101440.44;5072910;28;46642;-81
2023/09/14 09:12:25;;;;;;;;;39.67;35.00;;;;;22.28;65.49;101401.69;5064695;28;45436;-81
2023/09/14 09:14:54;;;;;;;;;35.67;31.67;;;;;22.57;65.47;101434.19;5055085;28;45465;-81
2023/09/14 09:17:19;;;;;;;;;42.33;36.00;;;;;22.64;65.10;101429.91;5055625;28;45653;-78
2023/09/14 09:19:52;;;;;;;;;39.33;35.00;;;;;22.88;64.52;101430.31;5038617;28;46313;-85
2023/09/14 09:22:17;;;;;;;;;42.67;35.00;;;;;23.04;63.99;101412.59;5056122;28;45359;-81
2023/09/14 09:24:43;;;;;;;;;39.00;35.00;;;;;23.36;62.90;101434.78;5052835;28;45513;-84
2023/09/14 09:27:24;;;;;;;;;40.33;35.33;;;;;23.17;62.47;101424.84;5037273;28;45385;-81
2023/09/14 09:29:59;;;;;;;;;46.67;38.33;;;;;22.98;63.24;101430.31;5055300;28;46196;-82
2023/09/14 09:32:24;;;;;;;;;44.67;37.00;;;;;22.70;63.89;101415.78;5055350;28;45541;-82
2023/09/14 09:34:50;;;;;;;;;44.00;36.67;;;;;22.77;64.21;101437.72;5055695;28;45408;-82
2023/09/14 09:37:16;;;;;;;;;42.33;35.00;;;;;22.84;63.89;101407.22;5056104;28;45402;-84
2023/09/14 09:39:43;;;;;;;;;42.00;34.67;;;;;22.98;62.57;101407.75;5055211;28;45504;-82
2023/09/14 09:42:12;;;;;;;;;46.67;36.00;;;;;23.08;62.70;101431.16;5062108;28;45468;-85
2023/09/14 09:44:38;;;;;;;;;48.00;38.00;;;;;23.11;62.42;101430.00;5056813;28;45496;-83
2023/09/14 09:47:04;;;;;;;;;40.00;35.00;;;;;23.04;62.51;101418.00;5055158;28;45492;-81
2023/09/14 09:49:31;;;;;;;;;41.33;33.33;;;;;23.14;61.69;101419.72;5053801;28;45904;-83
2023/09/14 09:51:57;;;;;;;;;55.00;45.33;;;;;23.23;62.04;101434.25;5054535;28;45425;-82
2023/09/14 09:54:24;;;;;;;;;40.67;35.00;;;;;23.11;61.69;101394.72;5054072;28;45863;-82
2023/09/14 09:56:51;;;;;;;;;35.33;32.33;;;;;23.33;61.55;101426.94;5053778;28;45413;-80
2023/09/14 09:59:17;;;;;;;;;21.33;21.33;;;;;23.34;60.22;101415.09;5054656;28;45520;-81
2023/09/14 10:01:47;;;;;;;;;22.33;18.33;;;;;23.41;60.29;101404.47;5054889;28;45428;-82
2023/09/14 10:04:14;;;;;;;;;22.50;17.00;;;;;23.52;59.33;101412.41;5054574;28;45357;-82
2023/09/14 10:06:41;;;;;;;;;20.00;18.67;;;;;23.38;58.91;101389.34;5055621;28;45331;-82
2023/09/14 10:09:11;;;;;;;;;18.33;16.67;;;;;23.36;58.83;101391.34;5055789;28;46040;-83
2023/09/14 10:11:38;;;;;;;;;19.33;17.67;;;;;23.59;58.61;101400.00;5056334;28;45351;-84
2023/09/14 10:14:04;;;;;;;;;17.33;16.33;;;;;23.82;57.49;101416.72;5055583;28;45362;-84
2023/09/14 10:16:35;;;;;;;;;24.33;22.33;;;;;24.02;57.29;101403.88;5057263;28;45411;-89
2023/09/14 10:19:02;;;;;;;;;19.67;19.67;;;;;24.22;56.58;101405.47;5054916;27;48172;-86
2023/09/14 10:21:29;;;;;;;;;19.33;18.00;;;;;24.37;55.85;101409.38;5057366;28;45461;-86
2023/09/14 10:23:55;;;;;;;;;26.67;25.00;;;;;24.21;54.23;101378.41;5055682;28;45599;-84
2023/09/14 10:26:20;;;;;;;;;23.00;21.00;;;;;24.26;54.06;101408.72;5052867;28;47337;-84
2023/09/14 10:28:46;;;;;;;;;24.67;22.00;;;;;24.20;53.16;101406.59;5057877;28;46487;-82
2023/09/14 10:31:13;;;;;;;;;11.67;11.67;;;;;24.18;54.06;101395.03;5057883;28;45531;-85
2023/09/14 10:33:45;;;;;;;;;15.00;14.00;;;;;24.40;52.21;101402.75;5059786;28;45376;-85
2023/09/14 10:36:12;;;;;;;;;10.50;10.25;;;;;24.42;52.01;101358.09;5061469;28;45655;-84
2023/09/14 10:38:42;;;;;;;;;10.50;10.50;;;;;24.98;51.02;101372.25;5056997;28;46147;-84
2023/09/14 10:41:08;;;;;;;;;13.00;13.00;;;;;25.56;50.80;101385.19;5067043;28;45457;-84
2023/09/14 10:43:33;;;;;;;;;14.50;13.75;;;;;25.74;48.81;101377.78;5056015;28;45450;-83
2023/09/14 10:46:01;;;;;;;;;14.00;12.00;;;;;25.74;48.27;101371.47;5048599;28;45611;-84
2023/09/14 10:48:29;;;;;;;;;9.75;9.25;;;;;25.85;47.92;101377.47;5076237;27;46058;-83
2023/09/14 10:50:58;;;;;;;;;15.75;14.75;;;;;25.75;48.54;101356.84;5056126;28;45806;-83
2023/09/14 10:53:24;;;;;;;;;13.25;13.25;;;;;25.79;49.63;101372.72;5053904;28;45436;-83
2023/09/14 10:55:49;;;;;;;;;11.75;11.25;;;;;25.82;49.19;101364.19;5071392;28;45453;-84
2023/09/14 10:58:17;;;;;;;;;17.75;14.00;;;;;26.04;48.80;101367.28;5075395;28;46111;-83
2023/09/14 11:00:43;;;;;;;;;11.25;11.00;;;;;26.22;49.19;101354.38;5070921;27;45547;-83
2023/09/14 11:03:13;;;;;;;;;18.50;16.75;;;;;26.54;48.72;101363.59;5056661;28;45390;-83
2023/09/14 11:05:41;;;;;;;;;11.50;10.25;;;;;26.72;47.06;101361.56;5036547;28;45338;-82